Time;durP1;ratioP1;P1;durP2;ratioP2;P2;SDS_P1;SDS_P2;PMS_P1;PMS_P2;Temp;Humidity;BMP_temperature;BMP_pressure;BME280_temperature;BME280_humidity;BME280_pressure;Samples;Min_cycle;Max_cycle;Signal;HPM_P1;HPM_P2
2024/01/31 00:00:59;;;;;;;14.77;11.57;;;6.60;38.10;;;;;;10530423;27;20216;-66
2024/01/31 00:06:03;;;;;;;12.93;10.70;;;6.60;38.10;;;;;;10534251;27;20227;-66
2024/01/31 00:11:09;;;;;;;12.80;11.43;;;6.60;38.10;;;;;;10532935;28;20243;-66
2024/01/31 00:16:13;;;;;;;12.13;10.93;;;6.60;38.10;;;;;;10529343;27;20697;-70
2024/01/31 00:21:17;;;;;;;12.50;11.13;;;6.60;38.10;;;;;;10531887;28;20232;-70
2024/01/31 00:26:21;;;;;;;13.30;11.90;;;6.60;38.10;;;;;;10531972;28;20224;-70
2024/01/31 00:31:24;;;;;;;14.20;10.83;;;6.60;38.10;;;;;;10534621;28;20233;-70
2024/01/31 00:36:28;;;;;;;15.07;11.23;;;6.60;38.10;;;;;;10530371;28;20697;-69
2024/01/31 00:41:33;;;;;;;12.77;11.47;;;6.60;38.10;;;;;;10533971;27;20237;-69
2024/01/31 00:46:41;;;;;;;15.73;11.93;;;6.60;38.10;;;;;;10530428;27;21114;-70
2024/01/31 00:51:45;;;;;;;13.23;11.30;;;6.70;38.20;;;;;;10535977;28;20234;-69
2024/01/31 00:56:49;;;;;;;11.43;10.30;;;6.60;38.10;;;;;;10537157;28;20321;-66
2024/01/31 01:01:53;;;;;;;11.50;10.33;;;6.70;38.20;;;;;;10527002;27;20228;-66
2024/01/31 01:06:56;;;;;;;11.93;10.00;;;6.70;38.10;;;;;;10534133;28;20315;-67
2024/01/31 01:12:01;;;;;;;9.87;8.90;;;6.70;38.20;;;;;;10527966;28;21188;-66
2024/01/31 01:17:05;;;;;;;10.47;9.47;;;6.70;38.20;;;;;;10529132;28;20319;-69
2024/01/31 01:22:08;;;;;;;11.53;10.33;;;6.70;38.20;;;;;;10533156;27;20329;-71
2024/01/31 01:27:12;;;;;;;10.10;9.10;;;6.70;38.20;;;;;;10533301;28;20231;-70
2024/01/31 01:32:15;;;;;;;9.97;8.87;;;6.70;38.20;;;;;;10526915;28;20306;-67
2024/01/31 01:37:19;;;;;;;10.10;9.10;;;6.70;38.10;;;;;;10535634;28;20231;-69
2024/01/31 01:42:23;;;;;;;10.20;9.10;;;6.60;38.00;;;;;;10528617;28;20731;-70
2024/01/31 01:47:26;;;;;;;10.93;9.67;;;6.60;38.10;;;;;;10531916;28;20223;-70
2024/01/31 01:52:31;;;;;;;10.53;9.17;;;6.60;37.70;;;;;;10532328;28;20223;-66
2024/01/31 01:57:37;;;;;;;9.73;8.83;;;6.50;38.00;;;;;;10527712;28;21107;-69
2024/01/31 02:02:41;;;;;;;11.07;9.93;;;6.50;38.00;;;;;;10530548;28;20268;-69
2024/01/31 02:07:45;;;;;;;11.87;10.63;;;6.50;37.60;;;;;;10533160;28;20226;-67
2024/01/31 02:12:50;;;;;;;13.37;11.27;;;6.40;37.50;;;;;;10531610;28;20449;-67
2024/01/31 02:17:53;;;;;;;12.20;10.90;;;6.40;37.90;;;;;;10534501;28;20639;-66
2024/01/31 02:22:58;;;;;;;12.40;11.10;;;6.40;37.90;;;;;;10528057;28;20226;-66
2024/01/31 02:28:01;;;;;;;12.27;10.97;;;6.30;37.90;;;;;;10524146;28;20214;-70
2024/01/31 02:33:04;;;;;;;12.40;9.20;;;6.30;37.80;;;;;;10525929;28;20227;-70
2024/01/31 02:38:09;;;;;;;11.63;10.43;;;6.20;37.70;;;;;;10528714;28;20223;-69
2024/01/31 02:43:13;;;;;;;10.40;9.33;;;6.20;37.80;;;;;;10530730;28;20437;-70
2024/01/31 02:48:16;;;;;;;11.50;8.80;;;6.10;37.70;;;;;;10524848;28;20220;-70
2024/01/31 02:53:20;;;;;;;11.33;10.23;;;6.10;37.70;;;;;;10531105;28;20606;-70
2024/01/31 02:58:24;;;;;;;9.87;8.87;;;6.00;37.60;;;;;;10527128;28;20228;-70
2024/01/31 03:03:27;;;;;;;10.27;9.20;;;5.90;37.50;;;;;;10529906;28;20296;-70
2024/01/31 03:08:31;;;;;;;9.37;8.47;;;5.80;37.50;;;;;;10527964;28;20221;-70
2024/01/31 03:13:34;;;;;;;10.87;8.90;;;5.70;37.80;;;;;;10525464;28;20226;-70
2024/01/31 03:18:38;;;;;;;11.87;9.43;;;5.60;37.90;;;;;;10524719;28;20598;-65
2024/01/31 03:23:42;;;;;;;10.30;8.83;;;5.60;38.00;;;;;;10531245;28;20313;-70
2024/01/31 03:28:46;;;;;;;9.90;8.90;;;5.60;38.40;;;;;;10537256;28;20782;-69
2024/01/31 03:33:49;;;;;;;9.83;8.83;;;5.50;38.40;;;;;;10536634;28;20256;-69
2024/01/31 03:38:54;;;;;;;9.27;8.37;;;5.50;38.40;;;;;;10526228;28;20224;-69
2024/01/31 03:43:57;;;;;;;8.70;7.80;;;5.60;38.90;;;;;;10533622;28;20233;-69
2024/01/31 03:49:00;;;;;;;9.77;7.83;;;5.60;38.60;;;;;;10532465;28;20298;-69
2024/01/31 03:54:06;;;;;;;8.90;7.90;;;5.60;38.70;;;;;;10536311;28;20229;-70
2024/01/31 03:59:09;;;;;;;10.47;7.77;;;5.50;39.00;;;;;;10533719;28;20255;-70
2024/01/31 04:04:12;;;;;;;8.57;7.60;;;5.60;39.00;;;;;;10530117;27;20712;-70
2024/01/31 04:09:17;;;;;;;11.53;8.03;;;5.50;39.00;;;;;;10536239;28;20225;-70
2024/01/31 04:14:20;;;;;;;10.97;7.90;;;5.60;39.40;;;;;;10528738;28;20242;-69
2024/01/31 04:19:23;;;;;;;8.43;7.60;;;5.50;39.30;;;;;;10528137;27;20230;-69
2024/01/31 04:24:28;;;;;;;8.53;7.30;;;5.60;39.50;;;;;;10528334;28;20228;-69
2024/01/31 04:29:31;;;;;;;8.00;7.20;;;5.60;39.70;;;;;;10535897;28;20593;-69
2024/01/31 04:34:35;;;;;;;8.07;7.23;;;5.70;39.60;;;;;;10528068;28;21139;-70
2024/01/31 04:39:39;;;;;;;8.17;6.90;;;5.80;39.80;;;;;;10529330;28;20220;-69
2024/01/31 04:44:45;;;;;;;7.67;6.80;;;5.90;39.90;;;;;;10531238;28;21000;-70
2024/01/31 04:49:48;;;;;;;7.57;6.80;;;5.90;39.60;;;;;;10531591;28;20246;-66
2024/01/31 04:54:53;;;;;;;7.27;6.57;;;5.90;39.60;;;;;;10529689;28;20219;-66
2024/01/31 04:59:56;;;;;;;9.07;6.13;;;6.00;39.70;;;;;;10528884;28;20229;-66
2024/01/31 05:05:01;;;;;;;7.97;6.13;;;6.00;39.60;;;;;;10533962;28;20220;-66
2024/01/31 05:10:07;;;;;;;7.97;7.17;;;6.10;39.90;;;;;;10527318;28;20265;-66
2024/01/31 05:15:10;;;;;;;6.97;6.27;;;6.10;40.10;;;;;;10529900;28;20357;-66
2024/01/31 05:20:14;;;;;;;7.70;6.33;;;6.10;39.80;;;;;;10529742;28;20591;-66
2024/01/31 05:25:18;;;;;;;7.10;6.40;;;6.20;40.00;;;;;;10526527;27;20220;-66
2024/01/31 05:30:22;;;;;;;8.03;6.70;;;6.20;40.20;;;;;;10530761;28;20238;-66
2024/01/31 05:35:26;;;;;;;6.63;6.03;;;6.20;39.90;;;;;;10529796;28;20603;-66
2024/01/31 05:40:31;;;;;;;7.60;6.90;;;6.30;40.00;;;;;;10531597;28;20232;-68
2024/01/31 05:45:35;;;;;;;7.27;6.47;;;6.30;40.30;;;;;;10532970;28;20223;-67
2024/01/31 05:50:38;;;;;;;7.00;6.30;;;6.40;40.00;;;;;;10532993;28;20665;-67
2024/01/31 05:55:45;;;;;;;8.20;7.40;;;6.40;40.10;;;;;;10532950;28;20235;-67
2024/01/31 06:00:49;;;;;;;7.97;7.03;;;6.40;41.10;;;;;;10524424;28;20315;-67
2024/01/31 06:05:52;;;;;;;8.13;6.57;;;6.40;40.20;;;;;;10531418;28;20310;-67
2024/01/31 06:11:02;;;;;;;7.20;6.50;;;6.50;40.40;;;;;;10523368;28;20227;-66
2024/01/31 06:16:06;;;;;;;6.90;6.30;;;6.50;40.70;;;;;;10529861;28;20296;-67
2024/01/31 06:21:09;;;;;;;10.30;6.40;;;6.50;40.40;;;;;;10525670;28;20231;-69
2024/01/31 06:26:15;;;;;;;6.93;6.23;;;6.60;41.10;;;;;;10523119;28;20235;-70
2024/01/31 06:31:25;;;;;;;7.03;5.83;;;6.70;41.20;;;;;;10527882;28;20743;-70
2024/01/31 06:36:28;;;;;;;6.87;6.27;;;6.80;40.80;;;;;;10527056;28;20724;-70
2024/01/31 06:41:35;;;;;;;7.40;6.70;;;6.90;40.60;;;;;;10517494;28;20664;-70
2024/01/31 06:46:38;;;;;;;8.63;7.73;;;6.90;40.60;;;;;;10529173;28;21057;-70
2024/01/31 06:51:41;;;;;;;7.37;6.67;;;7.00;40.40;;;;;;10519904;28;20235;-70
2024/01/31 06:56:46;;;;;;;10.63;9.63;;;7.00;40.30;;;;;;10530542;28;20311;-69
2024/01/31 07:01:49;;;;;;;12.47;11.17;;;7.10;40.50;;;;;;10537914;28;20227;-70
2024/01/31 07:06:53;;;;;;;10.40;9.40;;;7.10;40.20;;;;;;10526939;28;20272;-70
2024/01/31 07:11:59;;;;;;;9.23;8.33;;;7.10;40.20;;;;;;10533069;28;20701;-70
2024/01/31 07:17:03;;;;;;;10.83;8.63;;;7.20;40.40;;;;;;10524989;28;20232;-70
2024/01/31 07:22:07;;;;;;;8.87;8.00;;;7.20;40.30;;;;;;10534251;28;20227;-70
2024/01/31 07:27:11;;;;;;;9.93;8.93;;;7.20;40.50;;;;;;10529277;27;20285;-70
2024/01/31 07:32:15;;;;;;;9.27;7.87;;;7.30;40.60;;;;;;10529572;28;20636;-71
2024/01/31 07:37:18;;;;;;;9.33;8.40;;;7.30;40.30;;;;;;10536110;28;20241;-71
2024/01/31 07:42:22;;;;;;;9.93;8.47;;;7.30;40.20;;;;;;10535306;28;20258;-71
2024/01/31 07:47:26;;;;;;;9.57;8.63;;;7.40;40.50;;;;;;10531481;28;20666;-71
2024/01/31 07:52:29;;;;;;;8.30;7.60;;;7.30;40.10;;;;;;10529366;28;20269;-71
2024/01/31 07:57:34;;;;;;;10.37;9.40;;;7.40;40.20;;;;;;10533176;28;20305;-71
2024/01/31 08:02:37;;;;;;;10.10;9.20;;;7.40;40.50;;;;;;10536046;28;20231;-71
2024/01/31 08:07:43;;;;;;;12.80;11.50;;;7.40;40.40;;;;;;10535689;28;20223;-71
2024/01/31 08:12:49;;;;;;;14.90;10.70;;;7.40;40.60;;;;;;10532454;28;20861;-71
2024/01/31 08:17:52;;;;;;;11.13;10.13;;;7.40;40.60;;;;;;10535099;28;20733;-71
2024/01/31 08:22:56;;;;;;;11.17;10.07;;;7.50;40.40;;;;;;10530629;28;20295;-71
2024/01/31 08:28:01;;;;;;;10.97;9.87;;;7.50;40.40;;;;;;10536369;28;20227;-71
2024/01/31 08:33:04;;;;;;;10.47;9.47;;;7.50;40.80;;;;;;10540831;28;20226;-71
2024/01/31 08:38:08;;;;;;;9.63;8.63;;;7.50;40.50;;;;;;10527730;28;20708;-71
2024/01/31 08:43:12;;;;;;;11.43;10.20;;;7.60;40.50;;;;;;10527353;28;20259;-71
2024/01/31 08:48:16;;;;;;;12.00;10.80;;;7.60;40.90;;;;;;10534232;28;20223;-71
2024/01/31 08:53:19;;;;;;;11.83;10.63;;;7.70;40.80;;;;;;10532879;28;20285;-71
2024/01/31 08:58:23;;;;;;;12.03;10.50;;;7.70;40.90;;;;;;10525072;28;20314;-71
2024/01/31 09:03:27;;;;;;;12.43;10.30;;;7.80;41.10;;;;;;10529857;27;20784;-71
2024/01/31 09:08:30;;;;;;;11.00;9.97;;;7.80;40.90;;;;;;10529720;28;20227;-71
2024/01/31 09:13:35;;;;;;;11.40;9.93;;;7.90;40.90;;;;;;10530851;27;20228;-71
2024/01/31 09:18:39;;;;;;;12.30;10.40;;;8.00;41.10;;;;;;10530978;28;20762;-71
2024/01/31 09:23:44;;;;;;;11.27;10.17;;;8.00;40.90;;;;;;10523724;28;20231;-71
2024/01/31 09:28:49;;;;;;;10.37;9.27;;;8.10;41.10;;;;;;10533105;28;20302;-71
2024/01/31 09:33:54;;;;;;;9.57;8.67;;;8.10;41.30;;;;;;10531996;28;20275;-67
2024/01/31 09:38:57;;;;;;;10.93;9.77;;;8.20;41.30;;;;;;10531574;28;20227;-67
2024/01/31 09:44:02;;;;;;;9.00;8.17;;;8.30;41.30;;;;;;10533065;28;20216;-68
2024/01/31 09:49:05;;;;;;;9.37;8.50;;;8.30;41.30;;;;;;10527668;28;20224;-68
2024/01/31 09:54:09;;;;;;;10.47;9.47;;;8.40;41.10;;;;;;10526010;28;20235;-68
2024/01/31 09:59:14;;;;;;;10.53;8.80;;;8.40;41.10;;;;;;10528272;28;20219;-67
2024/01/31 10:04:18;;;;;;;11.30;9.27;;;8.40;41.30;;;;;;10528096;28;20238;-67
2024/01/31 10:09:21;;;;;;;9.20;8.40;;;8.50;41.20;;;;;;10530461;28;23048;-67
2024/01/31 10:14:26;;;;;;;9.33;8.43;;;8.50;41.20;;;;;;10528202;28;20289;-67
2024/01/31 10:19:30;;;;;;;9.60;8.70;;;8.60;41.60;;;;;;10527445;28;20327;-67
2024/01/31 10:24:33;;;;;;;10.00;9.00;;;8.60;41.30;;;;;;10527448;28;20235;-67
2024/01/31 10:29:39;;;;;;;9.50;8.60;;;8.70;41.30;;;;;;10526814;28;20251;-68
2024/01/31 10:34:43;;;;;;;12.83;10.63;;;8.70;41.60;;;;;;10527889;28;20624;-67
2024/01/31 10:40:09;;;;;;;11.97;10.77;;;8.70;41.20;;;;;;10524591;28;20223;-67
2024/01/31 10:45:14;;;;;;;13.50;12.10;;;8.70;41.10;;;;;;10530027;28;20231;-67
2024/01/31 10:50:18;;;;;;;14.37;12.93;;;8.70;41.20;;;;;;10522678;28;20595;-67
2024/01/31 10:55:22;;;;;;;14.50;13.00;;;8.80;41.10;;;;;;10527821;28;20728;-68
2024/01/31 11:00:29;;;;;;;13.50;12.13;;;8.80;41.20;;;;;;10527047;28;20231;-67
2024/01/31 11:05:33;;;;;;;13.53;12.20;;;8.80;41.30;;;;;;10529143;28;20288;-68
2024/01/31 11:10:37;;;;;;;13.30;11.90;;;8.90;41.20;;;;;;10535599;28;20227;-68
2024/01/31 11:15:42;;;;;;;13.93;12.13;;;8.90;41.10;;;;;;10522942;28;20220;-67
2024/01/31 11:20:47;;;;;;;14.33;12.00;;;9.00;41.30;;;;;;10524777;28;20310;-67
2024/01/31 11:25:52;;;;;;;12.60;11.30;;;9.00;41.20;;;;;;10520379;28;20228;-67
2024/01/31 11:30:57;;;;;;;14.57;12.67;;;9.00;41.10;;;;;;10527478;28;20270;-71
2024/01/31 11:36:00;;;;;;;13.23;11.93;;;9.10;41.40;;;;;;10529823;28;20322;-71
2024/01/31 11:41:04;;;;;;;13.87;12.17;;;9.10;41.10;;;;;;10517249;28;20228;-71
2024/01/31 11:46:09;;;;;;;12.97;11.67;;;9.20;41.20;;;;;;10533347;28;20661;-71
2024/01/31 11:51:12;;;;;;;12.70;11.50;;;9.20;41.50;;;;;;10534230;27;20243;-71
2024/01/31 11:56:16;;;;;;;11.10;10.03;;;9.30;41.30;;;;;;10536058;28;20276;-71
2024/01/31 12:01:21;;;;;;;10.10;9.10;;;9.40;41.50;;;;;;10533473;27;20323;-74
2024/01/31 12:06:24;;;;;;;11.10;10.00;;;9.40;42.30;;;;;;10525004;28;20735;-71
2024/01/31 12:11:28;;;;;;;10.23;9.20;;;9.50;42.00;;;;;;10516421;28;20311;-72
2024/01/31 12:16:41;;;;;;;13.40;12.10;;;9.60;41.90;;;;;;10523760;28;20230;-68
2024/01/31 12:21:44;;;;;;;13.37;12.07;;;9.70;42.20;;;;;;10521166;28;20720;-71
2024/01/31 12:26:47;;;;;;;12.00;10.80;;;9.80;41.60;;;;;;10519396;28;20246;-68
2024/01/31 12:31:52;;;;;;;11.63;10.47;;;9.90;41.50;;;;;;10525712;27;20236;-71
2024/01/31 12:36:56;;;;;;;11.13;10.10;;;10.00;40.60;;;;;;10521176;28;20235;-71
2024/01/31 12:41:59;;;;;;;11.43;10.33;;;10.00;40.30;;;;;;10520109;28;21140;-71
2024/01/31 12:47:05;;;;;;;10.57;9.47;;;10.10;40.00;;;;;;10518332;28;20281;-70
2024/01/31 12:52:09;;;;;;;12.10;10.90;;;10.10;40.30;;;;;;10521869;28;20809;-71
2024/01/31 12:57:13;;;;;;;11.77;9.87;;;10.20;40.10;;;;;;10520100;28;21125;-71
2024/01/31 13:02:17;;;;;;;10.83;9.80;;;10.30;40.20;;;;;;10514948;28;20253;-71
2024/01/31 13:07:21;;;;;;;11.43;10.23;;;10.30;40.20;;;;;;10520759;28;20223;-71
2024/01/31 13:12:25;;;;;;;11.17;10.10;;;10.40;40.30;;;;;;10520043;28;20317;-72
2024/01/31 13:17:29;;;;;;;13.60;12.17;;;10.50;40.40;;;;;;10522608;27;20315;-70
2024/01/31 13:22:33;;;;;;;13.17;10.37;;;10.50;40.40;;;;;;10520770;28;20232;-71
2024/01/31 13:27:36;;;;;;;11.87;10.63;;;10.50;40.40;;;;;;10518401;28;20800;-70
2024/01/31 13:32:41;;;;;;;11.93;10.73;;;10.60;40.50;;;;;;10515499;28;20227;-70
2024/01/31 13:37:44;;;;;;;11.40;10.30;;;10.70;40.50;;;;;;10517877;28;20655;-70
2024/01/31 13:42:50;;;;;;;12.17;11.07;;;10.70;40.20;;;;;;10518812;28;20610;-70
2024/01/31 13:47:55;;;;;;;11.60;10.30;;;10.80;40.50;;;;;;10517888;28;20220;-70
2024/01/31 13:52:59;;;;;;;12.00;10.80;;;10.90;40.20;;;;;;10517503;28;20587;-70
2024/01/31 13:58:02;;;;;;;11.07;10.03;;;10.90;40.20;;;;;;10520616;28;20222;-71
2024/01/31 14:03:06;;;;;;;12.03;10.83;;;11.00;40.30;;;;;;10508533;28;20231;-71
2024/01/31 14:08:10;;;;;;;11.57;10.37;;;11.00;40.90;;;;;;10517697;28;20219;-71
2024/01/31 14:13:13;;;;;;;11.83;10.63;;;11.10;40.10;;;;;;10517915;28;20242;-71
2024/01/31 14:18:18;;;;;;;12.30;11.10;;;11.10;40.10;;;;;;10526739;28;20230;-70
2024/01/31 14:23:21;;;;;;;11.70;10.50;;;11.20;40.30;;;;;;10525734;28;20236;-69
2024/01/31 14:28:44;;;;;;;12.33;11.13;;;11.20;40.10;;;;;;10526401;28;20737;-69
2024/01/31 14:33:49;;;;;;;13.50;12.30;;;11.20;39.80;;;;;;10520368;28;20228;-69
2024/01/31 14:38:52;;;;;;;13.13;11.73;;;11.30;39.90;;;;;;10528087;28;20215;-68
2024/01/31 14:43:56;;;;;;;11.77;10.57;;;11.30;39.80;;;;;;10526155;28;20280;-68
2024/01/31 14:49:00;;;;;;;12.30;10.73;;;11.30;40.00;;;;;;10524350;28;20224;-68
2024/01/31 14:54:03;;;;;;;11.73;10.67;;;11.30;40.00;;;;;;10523024;28;20235;-68
2024/01/31 14:59:07;;;;;;;11.33;10.23;;;11.30;39.80;;;;;;10526018;28;20224;-67
2024/01/31 15:04:12;;;;;;;10.70;9.77;;;11.30;39.70;;;;;;10530510;28;20235;-67
2024/01/31 15:09:16;;;;;;;10.63;9.53;;;11.30;39.60;;;;;;10528827;28;20306;-68
2024/01/31 15:14:19;;;;;;;10.97;9.87;;;11.40;40.30;;;;;;10523867;28;20234;-67
2024/01/31 15:19:24;;;;;;;8.90;8.10;;;11.40;41.20;;;;;;10528402;27;20222;-67
2024/01/31 15:24:27;;;;;;;11.20;10.10;;;11.60;40.70;;;;;;10533165;27;20231;-71
2024/01/31 15:29:30;;;;;;;13.60;12.33;;;11.70;40.10;;;;;;10533496;28;20231;-70
2024/01/31 15:34:35;;;;;;;12.33;11.00;;;11.70;39.90;;;;;;10534725;28;20658;-71
2024/01/31 15:39:38;;;;;;;12.10;10.90;;;11.70;39.60;;;;;;10535788;28;20298;-70
2024/01/31 15:44:42;;;;;;;13.67;12.30;;;11.70;39.60;;;;;;10529330;28;20571;-71
2024/01/31 15:49:47;;;;;;;13.73;11.43;;;11.60;39.40;;;;;;10538990;28;20584;-70
2024/01/31 15:54:50;;;;;;;11.77;10.67;;;11.60;39.30;;;;;;10531552;28;20231;-71
2024/01/31 15:59:54;;;;;;;12.67;11.47;;;11.60;39.30;;;;;;10537480;27;20218;-70
2024/01/31 16:04:59;;;;;;;12.80;11.50;;;11.60;39.20;;;;;;10536908;28;20267;-71
2024/01/31 16:10:02;;;;;;;14.97;13.53;;;11.50;39.10;;;;;;10534482;28;20230;-69
2024/01/31 16:15:07;;;;;;;13.63;12.33;;;11.50;39.00;;;;;;10535047;28;20232;-70
2024/01/31 16:20:13;;;;;;;16.43;13.90;;;11.50;39.00;;;;;;10535195;28;20277;-71
2024/01/31 16:25:17;;;;;;;17.03;14.57;;;11.40;38.90;;;;;;10531145;28;20604;-70
2024/01/31 16:30:20;;;;;;;16.27;14.70;;;11.30;38.80;;;;;;10533495;28;20228;-70
2024/01/31 16:35:25;;;;;;;16.53;14.93;;;11.30;38.70;;;;;;10536600;28;20254;-70
2024/01/31 16:40:28;;;;;;;16.70;15.10;;;11.20;38.70;;;;;;10534741;28;20231;-70
2024/01/31 16:45:31;;;;;;;15.77;14.17;;;11.20;38.70;;;;;;10536293;27;20228;-71
2024/01/31 16:50:36;;;;;;;14.90;13.50;;;11.10;38.50;;;;;;10530548;27;20677;-71
2024/01/31 16:55:39;;;;;;;13.30;12.00;;;11.10;38.50;;;;;;10531457;28;24255;-71
2024/01/31 17:00:43;;;;;;;14.30;12.90;;;11.00;39.30;;;;;;10531220;28;20820;-71
2024/01/31 17:05:47;;;;;;;13.50;12.20;;;11.00;38.70;;;;;;10529129;28;20228;-73
2024/01/31 17:10:51;;;;;;;14.47;13.07;;;10.90;38.40;;;;;;10520676;28;20272;-74
2024/01/31 17:15:54;;;;;;;15.47;13.90;;;10.90;38.10;;;;;;10526174;28;20220;-73
2024/01/31 17:20:59;;;;;;;15.53;14.03;;;10.80;38.00;;;;;;10515637;28;20223;-73
2024/01/31 17:26:04;;;;;;;15.63;14.13;;;10.70;37.80;;;;;;10522586;28;20328;-73
2024/01/31 17:31:08;;;;;;;15.87;14.37;;;10.60;37.90;;;;;;10524879;28;20334;-72
2024/01/31 17:36:12;;;;;;;16.83;15.20;;;10.50;38.00;;;;;;10524035;28;20234;-73
2024/01/31 17:41:20;;;;;;;16.83;15.13;;;10.40;38.00;;;;;;10528328;28;20770;-72
2024/01/31 17:46:23;;;;;;;16.93;15.13;;;10.30;37.70;;;;;;10523598;28;20613;-72
2024/01/31 17:51:29;;;;;;;14.03;12.63;;;10.20;37.70;;;;;;10529312;27;20230;-68
2024/01/31 17:56:32;;;;;;;19.77;17.67;;;10.10;37.60;;;;;;10531009;28;20230;-69
2024/01/31 18:01:36;;;;;;;26.83;24.27;;;10.00;37.60;;;;;;10526949;27;20231;-69
2024/01/31 18:06:41;;;;;;;24.93;22.37;;;9.90;38.50;;;;;;10527776;28;20224;-69
2024/01/31 18:11:44;;;;;;;25.20;22.73;;;9.70;38.70;;;;;;10524479;28;20216;-69
2024/01/31 18:16:47;;;;;;;22.60;20.17;;;9.50;38.70;;;;;;10527345;28;20228;-69
2024/01/31 18:21:52;;;;;;;46.13;38.73;;;9.30;39.00;;;;;;10526347;28;20255;-69
2024/01/31 18:26:55;;;;;;;54.67;36.67;;;9.10;39.10;;;;;;10520001;28;20245;-71
2024/01/31 18:31:58;;;;;;;26.83;19.83;;;9.00;39.20;;;;;;10521512;28;20288;-71
2024/01/31 18:37:03;;;;;;;21.33;17.77;;;9.00;40.10;;;;;;10520014;28;20288;-70
2024/01/31 18:42:07;;;;;;;20.87;18.30;;;8.90;39.30;;;;;;10521193;28;20226;-71
2024/01/31 18:47:10;;;;;;;19.73;17.73;;;8.80;39.30;;;;;;10525782;28;20704;-71
2024/01/31 18:52:15;;;;;;;19.10;17.13;;;8.70;39.50;;;;;;10522612;28;20797;-69
2024/01/31 18:57:18;;;;;;;20.10;18.10;;;8.60;39.70;;;;;;10529340;28;20621;-68
2024/01/31 19:02:21;;;;;;;20.07;17.97;;;8.60;39.70;;;;;;10531931;28;20226;-68
2024/01/31 19:07:26;;;;;;;17.73;15.97;;;8.50;39.60;;;;;;10525320;28;20231;-68
2024/01/31 19:12:29;;;;;;;19.60;16.80;;;8.40;39.60;;;;;;10523725;27;20224;-71
2024/01/31 19:17:33;;;;;;;21.93;19.73;;;8.40;39.60;;;;;;10522560;28;20313;-69
2024/01/31 19:22:49;;;;;;;23.90;21.50;;;8.30;39.50;;;;;;10528153;27;20234;-68
2024/01/31 19:27:54;;;;;;;26.87;22.20;;;8.30;39.80;;;;;;10523939;27;20476;-69
2024/01/31 19:32:57;;;;;;;26.43;22.87;;;8.20;39.60;;;;;;10526547;28;20223;-68
2024/01/31 19:38:02;;;;;;;26.27;22.30;;;8.20;40.40;;;;;;10521625;28;20269;-68
2024/01/31 19:43:05;;;;;;;25.17;22.37;;;8.20;40.30;;;;;;10503224;27;20231;-69
2024/01/31 19:48:09;;;;;;;24.27;19.77;;;8.20;39.90;;;;;;10517212;28;20311;-68
2024/01/31 19:53:13;;;;;;;21.80;19.43;;;8.30;39.50;;;;;;10520294;27;20607;-68
2024/01/31 19:58:18;;;;;;;21.17;18.87;;;8.20;39.60;;;;;;10521556;28;20886;-68
2024/01/31 20:03:21;;;;;;;20.47;18.33;;;8.20;39.70;;;;;;10518952;27;20223;-68
2024/01/31 20:08:25;;;;;;;19.97;17.87;;;8.20;39.60;;;;;;10518957;28;20298;-68
2024/01/31 20:13:29;;;;;;;20.40;18.40;;;8.10;39.30;;;;;;10527675;28;20227;-68
2024/01/31 20:18:33;;;;;;;20.63;18.53;;;8.10;39.30;;;;;;10522784;27;20247;-68
2024/01/31 20:23:38;;;;;;;20.77;18.50;;;8.00;39.30;;;;;;10525140;28;20286;-68
2024/01/31 20:28:43;;;;;;;21.70;19.60;;;7.90;39.20;;;;;;10525465;28;20724;-68
2024/01/31 20:33:46;;;;;;;20.50;18.50;;;7.90;39.50;;;;;;10520974;28;20673;-68
2024/01/31 20:38:51;;;;;;;21.90;19.60;;;7.80;39.10;;;;;;10529993;28;20231;-69
2024/01/31 20:43:54;;;;;;;22.77;20.37;;;7.70;39.30;;;;;;10532283;27;20231;-69
2024/01/31 20:48:57;;;;;;;22.07;18.43;;;7.70;39.50;;;;;;10534162;28;20225;-68
2024/01/31 20:54:02;;;;;;;17.77;15.67;;;7.60;39.40;;;;;;10527774;28;20219;-69
2024/01/31 20:59:05;;;;;;;18.80;16.90;;;7.60;39.40;;;;;;10525600;27;20346;-69
2024/01/31 21:04:08;;;;;;;18.77;16.90;;;7.50;39.30;;;;;;10530555;27;20352;-69
2024/01/31 21:09:13;;;;;;;18.90;16.90;;;7.50;39.50;;;;;;10531813;28;20665;-69
2024/01/31 21:14:16;;;;;;;17.70;15.80;;;7.50;39.70;;;;;;10524650;28;20314;-68
2024/01/31 21:19:19;;;;;;;18.03;16.13;;;7.50;39.50;;;;;;10517482;28;20689;-68
2024/01/31 21:24:24;;;;;;;17.60;15.10;;;7.50;39.50;;;;;;10517945;28;20319;-68
2024/01/31 21:29:28;;;;;;;18.07;16.33;;;7.50;39.40;;;;;;10513709;28;20227;-71
2024/01/31 21:34:31;;;;;;;19.63;17.63;;;7.50;39.30;;;;;;10518745;27;20329;-71
2024/01/31 21:39:36;;;;;;;26.13;23.33;;;7.40;38.80;;;;;;10519326;28;20230;-72
2024/01/31 21:44:39;;;;;;;26.13;23.43;;;7.40;38.80;;;;;;10527828;28;20322;-71
2024/01/31 21:49:42;;;;;;;25.73;23.00;;;7.30;38.90;;;;;;10518976;28;20219;-74
2024/01/31 21:54:47;;;;;;;21.07;18.83;;;7.30;39.10;;;;;;10520874;28;20230;-71
2024/01/31 21:59:51;;;;;;;19.57;17.57;;;7.20;39.30;;;;;;10524010;28;20236;-71
2024/01/31 22:04:54;;;;;;;18.10;16.10;;;7.20;39.30;;;;;;10524339;28;20223;-72
2024/01/31 22:09:59;;;;;;;18.77;16.73;;;7.20;39.50;;;;;;10520864;28;20220;-71
2024/01/31 22:15:04;;;;;;;18.70;16.77;;;7.10;39.50;;;;;;10516610;28;20227;-71
2024/01/31 22:20:15;;;;;;;21.07;17.13;;;7.00;39.60;;;;;;10519099;28;20724;-71
2024/01/31 22:25:20;;;;;;;16.10;14.60;;;7.00;40.40;;;;;;10522318;28;20701;-71
2024/01/31 22:30:23;;;;;;;18.70;16.80;;;7.00;39.90;;;;;;10517021;28;21035;-72
2024/01/31 22:35:27;;;;;;;22.17;19.70;;;7.00;39.90;;;;;;10524864;28;20310;-72
2024/01/31 22:40:33;;;;;;;17.73;15.87;;;7.00;40.10;;;;;;10521871;28;20231;-71
2024/01/31 22:45:36;;;;;;;16.97;15.23;;;7.00;40.20;;;;;;10527287;28;20818;-72
2024/01/31 22:50:39;;;;;;;16.67;14.57;;;6.90;40.20;;;;;;10519202;28;20224;-71
2024/01/31 22:55:45;;;;;;;15.90;13.93;;;6.90;40.30;;;;;;10526407;28;20231;-71
2024/01/31 23:00:48;;;;;;;15.37;13.77;;;6.90;40.80;;;;;;10522911;28;20230;-72
2024/01/31 23:05:52;;;;;;;15.93;13.80;;;6.80;40.90;;;;;;10524631;28;20640;-71
2024/01/31 23:10:57;;;;;;;13.63;12.33;;;6.70;41.20;;;;;;10517032;28;20215;-72
2024/01/31 23:16:00;;;;;;;14.07;12.60;;;6.70;41.60;;;;;;10513969;28;20246;-72
2024/01/31 23:21:05;;;;;;;14.60;12.50;;;6.60;41.50;;;;;;10522349;28;20646;-72
2024/01/31 23:26:09;;;;;;;14.90;12.73;;;6.50;41.70;;;;;;10516776;28;20227;-71
2024/01/31 23:31:13;;;;;;;13.63;11.97;;;6.60;42.00;;;;;;10523530;28;20960;-72
2024/01/31 23:36:16;;;;;;;13.07;11.77;;;6.70;41.60;;;;;;10525188;28;20709;-72
2024/01/31 23:41:20;;;;;;;12.43;10.77;;;6.80;41.50;;;;;;10524224;28;20256;-72
2024/01/31 23:46:24;;;;;;;12.73;11.43;;;6.90;41.60;;;;;;10520753;28;20238;-72
2024/01/31 23:51:28;;;;;;;13.83;12.27;;;7.00;41.50;;;;;;10531926;28;20224;-69
2024/01/31 23:56:32;;;;;;;12.87;11.57;;;7.00;41.40;;;;;;10532003;28;20751;-73
